Alameda, OR

9:34 PM PST on December 21, 2014 (GMT -0800)
Concordia University | Change Station
CLOSE
Current Station
Personal Weather Station
Location: Portland, OR
Elevation: 141 ft
Nearby Weather Stations

Elev 141 ft 45.57 °N, 122.64 °W | Updated 1 second ago

Overcast
Overcast
52.6 °F
Feels Like 52.6 °F
N
2.0
Wind Variable Wind from SSW
Gusts 10.0 mph

Today
High -- | Low -- °F
--% Chance of Precip.
Yesterday
High -- | Low -- °F
Precip. -- in
7:47 AM 4:29 PM
New Moon, 0% visible
Pressure 30.16 in
Visibility 10.0 miles
Clouds Few 1300 ft
Mostly Cloudy 6500 ft
Overcast 8500 ft
Dew Point 50 °F
Humidity 89%
Rainfall 0.00 in
Snow Depth Not available.
UV 0 out of 12
Pollen .50 out of 12
Air Quality Not available.
Flu Activity Not available.
METAR KPDX 220453Z VRB03KT 10SM FEW013 BKN065 OVC085 11/09 A3016 RMK AO2 SLP212 T01110094

More Conditions Fewer Conditions

Pressure 30.16 in
Visibility 10.0 miles
Clouds Few 1300 ft
Mostly Cloudy 6500 ft
Overcast 8500 ft
Dew Point 50 °F
Humidity 89%
Rainfall 0.00 in
Snow Depth Not available.
UV 0 out of 12
Pollen .50 out of 12
Air Quality Not available.
Flu Activity Not available.
METAR KPDX 220453Z VRB03KT 10SM FEW013 BKN065 OVC085 11/09 A3016 RMK AO2 SLP212 T01110094

More Conditions Fewer Conditions

10-Day Weather Forecast

Almanac

Astronomy

Dec. 21, 2014 Rise Set
Actual Time
Civil Twilight
Nautical Twilight
Astronomical Twilight
Moon
Length of Visible Light
Length of Day
Tomorrow will be .
, % of the Moon is Illuminated

Today's Extremes

State Highs State Lows

Community

WunderPhotos

Upload Photos

1,779,549 photos uploaded!

WunderBlogs® & News

Nearby

Air Quality

  Air Quality AQ Index Pollutant
Not available.

Snow Depth

Station Depth Elevation

Earthquake Activity

City Distance Mag. Time & Date
Minimum magnitude displayed is 2.5.

Coastal Water Temperatures

Place Temperature

Nearby Weather Stations